sensor_id;sensor_type;location;lat;lon;timestamp;temperature;humidity
16505;HTU21D;8365;51.030;4.696;2023-08-12T00:00:06;23.05;118.99
16505;HTU21D;8365;51.030;4.696;2023-08-12T00:02:44;23.09;118.99
16505;HTU21D;8365;51.030;4.696;2023-08-12T00:05:19;23.11;118.99
16505;HTU21D;8365;51.030;4.696;2023-08-12T00:07:50;23.17;118.99
16505;HTU21D;8365;51.030;4.696;2023-08-12T00:10:20;23.36;118.99
16505;HTU21D;8365;51.030;4.696;2023-08-12T00:12:51;23.44;118.99
16505;HTU21D;8365;51.030;4.696;2023-08-12T00:15:21;23.14;118.99
16505;HTU21D;8365;51.030;4.696;2023-08-12T00:17:52;22.96;118.99
16505;HTU21D;8365;51.030;4.696;2023-08-12T00:20:23;23.01;118.99
16505;HTU21D;8365;51.030;4.696;2023-08-12T00:22:53;22.65;118.99
16505;HTU21D;8365;51.030;4.696;2023-08-12T00:25:24;22.79;118.99
16505;HTU21D;8365;51.030;4.696;2023-08-12T00:27:54;22.82;118.99
16505;HTU21D;8365;51.030;4.696;2023-08-12T00:30:25;22.69;118.99
16505;HTU21D;8365;51.030;4.696;2023-08-12T00:32:55;22.38;118.99
16505;HTU21D;8365;51.030;4.696;2023-08-12T00:35:25;22.49;118.99
16505;HTU21D;8365;51.030;4.696;2023-08-12T00:37:56;22.52;118.99
16505;HTU21D;8365;51.030;4.696;2023-08-12T00:40:26;22.55;118.99
16505;HTU21D;8365;51.030;4.696;2023-08-12T00:42:57;22.58;118.99
16505;HTU21D;8365;51.030;4.696;2023-08-12T00:45:30;22.58;118.99
16505;HTU21D;8365;51.030;4.696;2023-08-12T00:48:02;22.53;118.99
16505;HTU21D;8365;51.030;4.696;2023-08-12T00:50:33;22.60;118.99
16505;HTU21D;8365;51.030;4.696;2023-08-12T00:53:04;22.41;118.99
16505;HTU21D;8365;51.030;4.696;2023-08-12T00:55:40;22.27;118.99
16505;HTU21D;8365;51.030;4.696;2023-08-12T00:58:11;22.34;118.99
16505;HTU21D;8365;51.030;4.696;2023-08-12T01:00:41;22.37;118.99
16505;HTU21D;8365;51.030;4.696;2023-08-12T01:03:12;22.17;118.99
16505;HTU21D;8365;51.030;4.696;2023-08-12T01:05:43;22.01;118.99
16505;HTU21D;8365;51.030;4.696;2023-08-12T01:08:17;22.32;118.99
16505;HTU21D;8365;51.030;4.696;2023-08-12T01:10:56;22.43;118.99
16505;HTU21D;8365;51.030;4.696;2023-08-12T01:13:38;22.54;118.99
16505;HTU21D;8365;51.030;4.696;2023-08-12T01:16:13;22.63;118.99
16505;HTU21D;8365;51.030;4.696;2023-08-12T01:18:46;22.68;118.99
16505;HTU21D;8365;51.030;4.696;2023-08-12T01:21:20;22.65;118.99
16505;HTU21D;8365;51.030;4.696;2023-08-12T01:23:51;22.52;118.99
16505;HTU21D;8365;51.030;4.696;2023-08-12T01:26:22;22.73;118.99
16505;HTU21D;8365;51.030;4.696;2023-08-12T01:28:52;22.85;118.99
16505;HTU21D;8365;51.030;4.696;2023-08-12T01:31:31;22.87;118.99
16505;HTU21D;8365;51.030;4.696;2023-08-12T01:34:20;22.60;118.99
16505;HTU21D;8365;51.030;4.696;2023-08-12T01:36:55;22.50;118.99
16505;HTU21D;8365;51.030;4.696;2023-08-12T01:39:28;22.29;118.99
16505;HTU21D;8365;51.030;4.696;2023-08-12T01:42:00;22.18;118.99
16505;HTU21D;8365;51.030;4.696;2023-08-12T01:44:31;22.26;118.99
16505;HTU21D;8365;51.030;4.696;2023-08-12T01:47:02;22.13;118.99
16505;HTU21D;8365;51.030;4.696;2023-08-12T01:49:33;22.07;118.99
16505;HTU21D;8365;51.030;4.696;2023-08-12T01:52:03;22.02;118.99
16505;HTU21D;8365;51.030;4.696;2023-08-12T01:54:34;21.95;118.99
16505;HTU21D;8365;51.030;4.696;2023-08-12T01:57:05;21.85;118.99
16505;HTU21D;8365;51.030;4.696;2023-08-12T01:59:35;21.66;118.99
16505;HTU21D;8365;51.030;4.696;2023-08-12T02:02:06;21.61;118.99
16505;HTU21D;8365;51.030;4.696;2023-08-12T02:04:36;21.61;118.99
16505;HTU21D;8365;51.030;4.696;2023-08-12T02:07:07;21.68;118.99
16505;HTU21D;8365;51.030;4.696;2023-08-12T02:09:38;21.72;118.99
16505;HTU21D;8365;51.030;4.696;2023-08-12T02:12:08;21.91;118.99
16505;HTU21D;8365;51.030;4.696;2023-08-12T02:14:39;21.93;118.99
16505;HTU21D;8365;51.030;4.696;2023-08-12T02:17:09;22.03;118.99
16505;HTU21D;8365;51.030;4.696;2023-08-12T02:19:40;22.14;118.99
16505;HTU21D;8365;51.030;4.696;2023-08-12T02:22:10;22.28;118.99
16505;HTU21D;8365;51.030;4.696;2023-08-12T02:24:41;22.36;118.99
16505;HTU21D;8365;51.030;4.696;2023-08-12T02:27:11;22.37;118.99
16505;HTU21D;8365;51.030;4.696;2023-08-12T02:29:42;22.51;118.99
16505;HTU21D;8365;51.030;4.696;2023-08-12T02:32:12;22.42;118.99
16505;HTU21D;8365;51.030;4.696;2023-08-12T02:34:43;22.58;118.99
16505;HTU21D;8365;51.030;4.696;2023-08-12T02:37:13;22.73;118.99
16505;HTU21D;8365;51.030;4.696;2023-08-12T02:39:43;22.60;118.99
16505;HTU21D;8365;51.030;4.696;2023-08-12T02:42:14;22.61;118.99
16505;HTU21D;8365;51.030;4.696;2023-08-12T02:44:44;22.46;118.99
16505;HTU21D;8365;51.030;4.696;2023-08-12T02:47:15;22.66;118.99
16505;HTU21D;8365;51.030;4.696;2023-08-12T02:49:48;22.77;118.99
16505;HTU21D;8365;51.030;4.696;2023-08-12T02:52:18;22.67;118.99
16505;HTU21D;8365;51.030;4.696;2023-08-12T02:54:49;22.34;118.99
16505;HTU21D;8365;51.030;4.696;2023-08-12T02:57:21;22.55;118.99
16505;HTU21D;8365;51.030;4.696;2023-08-12T02:59:52;22.79;118.99
16505;HTU21D;8365;51.030;4.696;2023-08-12T03:02:22;22.73;118.99
16505;HTU21D;8365;51.030;4.696;2023-08-12T03:04:53;22.84;118.99
16505;HTU21D;8365;51.030;4.696;2023-08-12T03:07:24;22.90;118.99
16505;HTU21D;8365;51.030;4.696;2023-08-12T03:09:54;22.86;118.99
16505;HTU21D;8365;51.030;4.696;2023-08-12T03:12:25;22.94;118.99
16505;HTU21D;8365;51.030;4.696;2023-08-12T03:14:55;23.01;118.99
16505;HTU21D;8365;51.030;4.696;2023-08-12T03:17:26;23.00;118.99
16505;HTU21D;8365;51.030;4.696;2023-08-12T03:19:57;22.81;118.99
16505;HTU21D;8365;51.030;4.696;2023-08-12T03:22:31;22.76;118.99
16505;HTU21D;8365;51.030;4.696;2023-08-12T03:25:02;22.85;118.99
16505;HTU21D;8365;51.030;4.696;2023-08-12T03:27:35;22.72;118.99
16505;HTU21D;8365;51.030;4.696;2023-08-12T03:30:06;22.85;118.99
16505;HTU21D;8365;51.030;4.696;2023-08-12T03:32:37;22.33;118.99
16505;HTU21D;8365;51.030;4.696;2023-08-12T03:35:08;22.28;118.99
16505;HTU21D;8365;51.030;4.696;2023-08-12T03:37:39;22.24;118.99
16505;HTU21D;8365;51.030;4.696;2023-08-12T03:40:10;21.91;118.99
16505;HTU21D;8365;51.030;4.696;2023-08-12T03:42:40;21.74;118.99
16505;HTU21D;8365;51.030;4.696;2023-08-12T03:45:11;21.25;118.99
16505;HTU21D;8365;51.030;4.696;2023-08-12T03:47:41;20.87;118.99
16505;HTU21D;8365;51.030;4.696;2023-08-12T03:50:12;20.57;118.99
16505;HTU21D;8365;51.030;4.696;2023-08-12T03:52:42;20.45;118.99
16505;HTU21D;8365;51.030;4.696;2023-08-12T03:55:13;20.41;118.99
16505;HTU21D;8365;51.030;4.696;2023-08-12T03:57:43;20.40;118.99
16505;HTU21D;8365;51.030;4.696;2023-08-12T04:00:14;20.59;118.99
16505;HTU21D;8365;51.030;4.696;2023-08-12T04:02:44;20.55;118.99
16505;HTU21D;8365;51.030;4.696;2023-08-12T04:05:17;20.60;118.99
16505;HTU21D;8365;51.030;4.696;2023-08-12T04:07:47;20.64;118.99
16505;HTU21D;8365;51.030;4.696;2023-08-12T04:10:18;20.69;118.99
16505;HTU21D;8365;51.030;4.696;2023-08-12T04:12:48;20.61;118.99
16505;HTU21D;8365;51.030;4.696;2023-08-12T04:15:18;20.62;118.99
16505;HTU21D;8365;51.030;4.696;2023-08-12T04:17:49;20.80;118.99
16505;HTU21D;8365;51.030;4.696;2023-08-12T04:20:19;20.80;118.99
16505;HTU21D;8365;51.030;4.696;2023-08-12T04:22:50;20.75;118.99
16505;HTU21D;8365;51.030;4.696;2023-08-12T04:25:23;20.83;118.99
16505;HTU21D;8365;51.030;4.696;2023-08-12T04:27:54;20.87;118.99
16505;HTU21D;8365;51.030;4.696;2023-08-12T04:30:24;20.84;118.99
16505;HTU21D;8365;51.030;4.696;2023-08-12T04:32:55;20.77;118.99
16505;HTU21D;8365;51.030;4.696;2023-08-12T04:35:25;20.89;118.99
16505;HTU21D;8365;51.030;4.696;2023-08-12T04:37:56;20.83;118.99
16505;HTU21D;8365;51.030;4.696;2023-08-12T04:40:26;20.88;118.99
16505;HTU21D;8365;51.030;4.696;2023-08-12T04:42:59;20.99;118.99
16505;HTU21D;8365;51.030;4.696;2023-08-12T04:45:30;20.95;118.99
16505;HTU21D;8365;51.030;4.696;2023-08-12T04:48:00;20.75;118.99
16505;HTU21D;8365;51.030;4.696;2023-08-12T04:50:31;20.88;118.99
16505;HTU21D;8365;51.030;4.696;2023-08-12T04:53:02;20.80;118.99
16505;HTU21D;8365;51.030;4.696;2023-08-12T04:55:34;20.84;118.99
16505;HTU21D;8365;51.030;4.696;2023-08-12T04:58:04;20.78;118.99
16505;HTU21D;8365;51.030;4.696;2023-08-12T05:00:35;20.69;118.99
16505;HTU21D;8365;51.030;4.696;2023-08-12T05:03:05;20.72;118.99
16505;HTU21D;8365;51.030;4.696;2023-08-12T05:05:36;20.79;118.99
16505;HTU21D;8365;51.030;4.696;2023-08-12T05:08:06;20.79;118.99
16505;HTU21D;8365;51.030;4.696;2023-08-12T05:10:37;20.94;118.99
16505;HTU21D;8365;51.030;4.696;2023-08-12T05:13:07;20.81;118.99
16505;HTU21D;8365;51.030;4.696;2023-08-12T05:15:37;20.77;118.99
16505;HTU21D;8365;51.030;4.696;2023-08-12T05:18:08;20.81;118.99
16505;HTU21D;8365;51.030;4.696;2023-08-12T05:20:40;20.77;118.99
16505;HTU21D;8365;51.030;4.696;2023-08-12T05:23:13;20.77;118.99
16505;HTU21D;8365;51.030;4.696;2023-08-12T05:25:44;20.84;118.99
16505;HTU21D;8365;51.030;4.696;2023-08-12T05:28:14;20.76;118.99
16505;HTU21D;8365;51.030;4.696;2023-08-12T05:30:45;20.72;118.99
16505;HTU21D;8365;51.030;4.696;2023-08-12T05:33:18;20.86;118.99
16505;HTU21D;8365;51.030;4.696;2023-08-12T05:35:48;20.81;118.99
16505;HTU21D;8365;51.030;4.696;2023-08-12T05:38:19;20.78;118.99
16505;HTU21D;8365;51.030;4.696;2023-08-12T05:40:49;20.86;118.99
16505;HTU21D;8365;51.030;4.696;2023-08-12T05:43:22;20.78;118.99
16505;HTU21D;8365;51.030;4.696;2023-08-12T05:45:52;20.92;118.99
16505;HTU21D;8365;51.030;4.696;2023-08-12T05:48:23;20.94;118.99
16505;HTU21D;8365;51.030;4.696;2023-08-12T05:50:53;20.86;118.99
16505;HTU21D;8365;51.030;4.696;2023-08-12T05:53:24;20.81;118.99
16505;HTU21D;8365;51.030;4.696;2023-08-12T05:55:54;20.76;118.99
16505;HTU21D;8365;51.030;4.696;2023-08-12T05:58:25;20.79;118.99
16505;HTU21D;8365;51.030;4.696;2023-08-12T06:00:55;20.68;118.99
16505;HTU21D;8365;51.030;4.696;2023-08-12T06:03:26;20.77;118.99
16505;HTU21D;8365;51.030;4.696;2023-08-12T06:05:56;20.76;118.99
16505;HTU21D;8365;51.030;4.696;2023-08-12T06:08:27;20.70;118.99
16505;HTU21D;8365;51.030;4.696;2023-08-12T06:10:57;20.73;118.99
16505;HTU21D;8365;51.030;4.696;2023-08-12T06:13:27;20.75;118.99
16505;HTU21D;8365;51.030;4.696;2023-08-12T06:15:58;20.73;118.99
16505;HTU21D;8365;51.030;4.696;2023-08-12T06:18:28;20.80;118.99
16505;HTU21D;8365;51.030;4.696;2023-08-12T06:20:59;20.73;118.99
16505;HTU21D;8365;51.030;4.696;2023-08-12T06:23:29;20.70;118.99
16505;HTU21D;8365;51.030;4.696;2023-08-12T06:26:00;20.75;118.99
16505;HTU21D;8365;51.030;4.696;2023-08-12T06:28:31;20.73;118.99
16505;HTU21D;8365;51.030;4.696;2023-08-12T06:31:01;20.72;118.99
16505;HTU21D;8365;51.030;4.696;2023-08-12T06:33:32;20.73;118.99
16505;HTU21D;8365;51.030;4.696;2023-08-12T06:36:02;20.73;118.99
16505;HTU21D;8365;51.030;4.696;2023-08-12T06:38:33;20.63;118.99
16505;HTU21D;8365;51.030;4.696;2023-08-12T06:41:03;20.62;118.99
16505;HTU21D;8365;51.030;4.696;2023-08-12T06:43:34;20.70;118.99
16505;HTU21D;8365;51.030;4.696;2023-08-12T06:46:05;20.74;118.99
16505;HTU21D;8365;51.030;4.696;2023-08-12T06:48:35;20.64;118.99
16505;HTU21D;8365;51.030;4.696;2023-08-12T06:51:06;20.59;118.99
16505;HTU21D;8365;51.030;4.696;2023-08-12T06:53:42;20.63;118.99
16505;HTU21D;8365;51.030;4.696;2023-08-12T06:56:13;20.61;118.99
16505;HTU21D;8365;51.030;4.696;2023-08-12T06:58:43;20.66;118.99
16505;HTU21D;8365;51.030;4.696;2023-08-12T07:01:14;20.75;118.99
16505;HTU21D;8365;51.030;4.696;2023-08-12T07:03:44;20.65;118.99
16505;HTU21D;8365;51.030;4.696;2023-08-12T07:06:15;20.76;118.99
16505;HTU21D;8365;51.030;4.696;2023-08-12T07:08:45;20.87;118.99
16505;HTU21D;8365;51.030;4.696;2023-08-12T07:11:19;20.88;118.99
16505;HTU21D;8365;51.030;4.696;2023-08-12T07:13:49;20.94;118.99
16505;HTU21D;8365;51.030;4.696;2023-08-12T07:16:22;21.03;118.99
16505;HTU21D;8365;51.030;4.696;2023-08-12T07:18:52;21.10;118.99
16505;HTU21D;8365;51.030;4.696;2023-08-12T07:21:23;21.05;118.99
16505;HTU21D;8365;51.030;4.696;2023-08-12T07:23:53;21.09;118.99
16505;HTU21D;8365;51.030;4.696;2023-08-12T07:26:24;21.15;118.99
16505;HTU21D;8365;51.030;4.696;2023-08-12T07:28:54;21.13;118.99
16505;HTU21D;8365;51.030;4.696;2023-08-12T07:31:25;21.23;118.99
16505;HTU21D;8365;51.030;4.696;2023-08-12T07:33:57;21.29;118.99
16505;HTU21D;8365;51.030;4.696;2023-08-12T07:36:28;21.19;118.99
16505;HTU21D;8365;51.030;4.696;2023-08-12T07:39:03;21.20;118.99
16505;HTU21D;8365;51.030;4.696;2023-08-12T07:41:33;21.18;118.99
16505;HTU21D;8365;51.030;4.696;2023-08-12T07:44:04;20.99;118.99
16505;HTU21D;8365;51.030;4.696;2023-08-12T07:46:35;20.87;118.99
16505;HTU21D;8365;51.030;4.696;2023-08-12T07:49:05;20.88;118.99
16505;HTU21D;8365;51.030;4.696;2023-08-12T07:51:36;20.81;118.99
16505;HTU21D;8365;51.030;4.696;2023-08-12T07:54:06;20.64;118.99
16505;HTU21D;8365;51.030;4.696;2023-08-12T07:56:37;20.66;118.99
16505;HTU21D;8365;51.030;4.696;2023-08-12T07:59:07;20.51;118.99
16505;HTU21D;8365;51.030;4.696;2023-08-12T08:01:38;20.60;118.99
16505;HTU21D;8365;51.030;4.696;2023-08-12T08:04:08;20.65;118.99
16505;HTU21D;8365;51.030;4.696;2023-08-12T08:06:39;20.71;118.99
16505;HTU21D;8365;51.030;4.696;2023-08-12T08:09:09;20.57;118.99
16505;HTU21D;8365;51.030;4.696;2023-08-12T08:11:40;20.70;118.99
16505;HTU21D;8365;51.030;4.696;2023-08-12T08:14:11;20.64;118.99
16505;HTU21D;8365;51.030;4.696;2023-08-12T08:16:41;20.80;118.99
16505;HTU21D;8365;51.030;4.696;2023-08-12T08:19:12;20.77;118.99
16505;HTU21D;8365;51.030;4.696;2023-08-12T08:21:43;20.92;118.99
16505;HTU21D;8365;51.030;4.696;2023-08-12T08:24:14;21.05;118.99
16505;HTU21D;8365;51.030;4.696;2023-08-12T08:26:44;21.06;118.99
16505;HTU21D;8365;51.030;4.696;2023-08-12T08:29:17;21.20;118.99
16505;HTU21D;8365;51.030;4.696;2023-08-12T08:31:48;20.90;118.99
16505;HTU21D;8365;51.030;4.696;2023-08-12T08:34:19;20.75;118.99
16505;HTU21D;8365;51.030;4.696;2023-08-12T08:36:50;20.86;118.99
16505;HTU21D;8365;51.030;4.696;2023-08-12T08:39:20;20.98;118.99
16505;HTU21D;8365;51.030;4.696;2023-08-12T08:41:53;21.07;118.99
16505;HTU21D;8365;51.030;4.696;2023-08-12T08:44:29;21.15;118.99
16505;HTU21D;8365;51.030;4.696;2023-08-12T08:47:01;20.76;118.99
16505;HTU21D;8365;51.030;4.696;2023-08-12T08:49:31;20.91;118.99
16505;HTU21D;8365;51.030;4.696;2023-08-12T08:52:03;20.80;118.99
16505;HTU21D;8365;51.030;4.696;2023-08-12T08:54:34;20.84;118.99
16505;HTU21D;8365;51.030;4.696;2023-08-12T08:57:05;20.70;118.99
16505;HTU21D;8365;51.030;4.696;2023-08-12T08:59:35;20.92;118.99
16505;HTU21D;8365;51.030;4.696;2023-08-12T09:02:15;21.07;118.99
16505;HTU21D;8365;51.030;4.696;2023-08-12T09:04:47;21.57;118.99
16505;HTU21D;8365;51.030;4.696;2023-08-12T09:07:17;21.69;118.99
16505;HTU21D;8365;51.030;4.696;2023-08-12T09:09:52;21.75;118.99
16505;HTU21D;8365;51.030;4.696;2023-08-12T09:12:22;21.65;118.99
16505;HTU21D;8365;51.030;4.696;2023-08-12T09:14:54;21.91;118.99
16505;HTU21D;8365;51.030;4.696;2023-08-12T09:17:24;22.07;118.99
16505;HTU21D;8365;51.030;4.696;2023-08-12T09:19:55;22.39;118.99
16505;HTU21D;8365;51.030;4.696;2023-08-12T09:22:26;22.42;118.99
16505;HTU21D;8365;51.030;4.696;2023-08-12T09:24:57;22.22;118.99
16505;HTU21D;8365;51.030;4.696;2023-08-12T09:27:30;21.89;118.99
16505;HTU21D;8365;51.030;4.696;2023-08-12T09:30:03;21.94;118.99
16505;HTU21D;8365;51.030;4.696;2023-08-12T09:32:36;21.52;118.99
16505;HTU21D;8365;51.030;4.696;2023-08-12T09:35:15;21.33;118.99
16505;HTU21D;8365;51.030;4.696;2023-08-12T09:37:46;21.34;118.99
16505;HTU21D;8365;51.030;4.696;2023-08-12T09:40:19;21.87;118.99
16505;HTU21D;8365;51.030;4.696;2023-08-12T09:42:49;22.19;118.99
16505;HTU21D;8365;51.030;4.696;2023-08-12T09:45:24;22.24;118.99
16505;HTU21D;8365;51.030;4.696;2023-08-12T09:47:54;22.12;118.99
16505;HTU21D;8365;51.030;4.696;2023-08-12T09:50:25;21.90;118.99
16505;HTU21D;8365;51.030;4.696;2023-08-12T09:52:56;21.81;118.99
16505;HTU21D;8365;51.030;4.696;2023-08-12T09:55:34;22.02;118.99
16505;HTU21D;8365;51.030;4.696;2023-08-12T09:58:06;22.01;118.99
16505;HTU21D;8365;51.030;4.696;2023-08-12T10:00:38;22.14;113.67
16505;HTU21D;8365;51.030;4.696;2023-08-12T10:03:13;22.60;114.14
16505;HTU21D;8365;51.030;4.696;2023-08-12T10:05:47;22.73;117.50
16505;HTU21D;8365;51.030;4.696;2023-08-12T10:08:18;22.77;114.77
16505;HTU21D;8365;51.030;4.696;2023-08-12T10:10:49;22.22;115.70
16505;HTU21D;8365;51.030;4.696;2023-08-12T10:13:21;21.75;114.73
16505;HTU21D;8365;51.030;4.696;2023-08-12T10:15:51;21.80;116.73
16505;HTU21D;8365;51.030;4.696;2023-08-12T10:18:22;21.93;117.30
16505;HTU21D;8365;51.030;4.696;2023-08-12T10:20:55;21.92;118.11
16505;HTU21D;8365;51.030;4.696;2023-08-12T10:23:28;21.77;118.47
16505;HTU21D;8365;51.030;4.696;2023-08-12T10:26:01;21.75;118.99
16505;HTU21D;8365;51.030;4.696;2023-08-12T10:28:36;22.24;118.05
16505;HTU21D;8365;51.030;4.696;2023-08-12T10:31:07;22.17;117.42
16505;HTU21D;8365;51.030;4.696;2023-08-12T10:33:41;22.18;118.99
16505;HTU21D;8365;51.030;4.696;2023-08-12T10:36:12;22.70;117.31
16505;HTU21D;8365;51.030;4.696;2023-08-12T10:38:43;22.76;115.02
16505;HTU21D;8365;51.030;4.696;2023-08-12T10:41:22;22.60;109.93
16505;HTU21D;8365;51.030;4.696;2023-08-12T10:44:01;22.60;109.18
16505;HTU21D;8365;51.030;4.696;2023-08-12T10:46:36;22.88;107.71
16505;HTU21D;8365;51.030;4.696;2023-08-12T10:49:09;23.12;104.36
16505;HTU21D;8365;51.030;4.696;2023-08-12T11:02:28;23.70;101.05
16505;HTU21D;8365;51.030;4.696;2023-08-12T11:05:03;23.98;100.10
16505;HTU21D;8365;51.030;4.696;2023-08-12T11:10:14;24.30;99.65
16505;HTU21D;8365;51.030;4.696;2023-08-12T11:12:52;24.56;96.92
16505;HTU21D;8365;51.030;4.696;2023-08-12T11:18:05;24.45;93.05
16505;HTU21D;8365;51.030;4.696;2023-08-12T11:20:37;25.19;91.72
16505;HTU21D;8365;51.030;4.696;2023-08-12T11:23:08;25.18;91.07
16505;HTU21D;8365;51.030;4.696;2023-08-12T11:25:40;25.99;88.15
16505;HTU21D;8365;51.030;4.696;2023-08-12T11:28:11;26.60;85.93
16505;HTU21D;8365;51.030;4.696;2023-08-12T11:30:41;26.63;86.86
16505;HTU21D;8365;51.030;4.696;2023-08-12T11:33:16;26.48;87.97
16505;HTU21D;8365;51.030;4.696;2023-08-12T11:35:48;25.65;89.34
16505;HTU21D;8365;51.030;4.696;2023-08-12T11:38:19;25.42;91.90
16505;HTU21D;8365;51.030;4.696;2023-08-12T11:40:50;25.61;90.64
16505;HTU21D;8365;51.030;4.696;2023-08-12T11:43:21;25.07;92.88
16505;HTU21D;8365;51.030;4.696;2023-08-12T11:45:55;25.76;89.09
16505;HTU21D;8365;51.030;4.696;2023-08-12T11:48:29;25.90;88.96
16505;HTU21D;8365;51.030;4.696;2023-08-12T11:50:59;25.45;88.09
16505;HTU21D;8365;51.030;4.696;2023-08-12T11:53:30;26.41;88.63
16505;HTU21D;8365;51.030;4.696;2023-08-12T11:56:00;26.63;83.59
16505;HTU21D;8365;51.030;4.696;2023-08-12T11:58:38;28.04;78.74
16505;HTU21D;8365;51.030;4.696;2023-08-12T12:01:09;28.26;77.70
16505;HTU21D;8365;51.030;4.696;2023-08-12T12:03:39;28.72;77.26
16505;HTU21D;8365;51.030;4.696;2023-08-12T12:06:12;28.91;75.84
16505;HTU21D;8365;51.030;4.696;2023-08-12T12:08:44;28.88;73.15
16505;HTU21D;8365;51.030;4.696;2023-08-12T12:11:14;28.50;73.63
16505;HTU21D;8365;51.030;4.696;2023-08-12T12:13:45;28.18;74.19
16505;HTU21D;8365;51.030;4.696;2023-08-12T12:16:17;28.24;75.10
16505;HTU21D;8365;51.030;4.696;2023-08-12T12:18:56;28.27;75.39
16505;HTU21D;8365;51.030;4.696;2023-08-12T12:21:27;27.89;72.77
16505;HTU21D;8365;51.030;4.696;2023-08-12T12:23:57;27.31;77.42
16505;HTU21D;8365;51.030;4.696;2023-08-12T12:26:28;28.38;74.44
16505;HTU21D;8365;51.030;4.696;2023-08-12T12:28:58;28.86;70.49
16505;HTU21D;8365;51.030;4.696;2023-08-12T12:31:29;29.07;68.86
16505;HTU21D;8365;51.030;4.696;2023-08-12T12:34:00;29.88;71.45
16505;HTU21D;8365;51.030;4.696;2023-08-12T12:36:35;30.37;66.09
16505;HTU21D;8365;51.030;4.696;2023-08-12T12:39:06;31.18;61.70
16505;HTU21D;8365;51.030;4.696;2023-08-12T12:41:38;30.20;62.66
16505;HTU21D;8365;51.030;4.696;2023-08-12T12:44:08;29.46;67.24
16505;HTU21D;8365;51.030;4.696;2023-08-12T12:46:39;29.74;66.65
16505;HTU21D;8365;51.030;4.696;2023-08-12T12:49:11;30.34;64.71
16505;HTU21D;8365;51.030;4.696;2023-08-12T12:51:42;30.45;60.15
16505;HTU21D;8365;51.030;4.696;2023-08-12T12:54:12;29.51;63.17
16505;HTU21D;8365;51.030;4.696;2023-08-12T12:56:43;29.56;61.00
16505;HTU21D;8365;51.030;4.696;2023-08-12T12:59:13;28.19;67.36
16505;HTU21D;8365;51.030;4.696;2023-08-12T13:01:44;27.91;68.14
16505;HTU21D;8365;51.030;4.696;2023-08-12T13:04:15;28.25;66.44
16505;HTU21D;8365;51.030;4.696;2023-08-12T13:06:45;27.85;67.38
16505;HTU21D;8365;51.030;4.696;2023-08-12T13:09:16;27.59;68.11
16505;HTU21D;8365;51.030;4.696;2023-08-12T13:11:47;27.43;70.32
16505;HTU21D;8365;51.030;4.696;2023-08-12T13:14:18;28.39;65.07
16505;HTU21D;8365;51.030;4.696;2023-08-12T13:16:51;28.16;66.33
16505;HTU21D;8365;51.030;4.696;2023-08-12T13:19:24;27.67;69.49
16505;HTU21D;8365;51.030;4.696;2023-08-12T13:21:55;28.93;66.43
16505;HTU21D;8365;51.030;4.696;2023-08-12T13:24:25;29.59;65.46
16505;HTU21D;8365;51.030;4.696;2023-08-12T13:26:56;30.46;59.71
16505;HTU21D;8365;51.030;4.696;2023-08-12T13:29:27;29.87;60.28
16505;HTU21D;8365;51.030;4.696;2023-08-12T13:32:01;30.61;55.78
16505;HTU21D;8365;51.030;4.696;2023-08-12T13:34:31;30.07;60.56
16505;HTU21D;8365;51.030;4.696;2023-08-12T13:37:02;30.32;58.48
16505;HTU21D;8365;51.030;4.696;2023-08-12T13:39:32;29.57;58.15
16505;HTU21D;8365;51.030;4.696;2023-08-12T13:42:03;29.37;60.80
16505;HTU21D;8365;51.030;4.696;2023-08-12T13:44:33;28.53;61.24
16505;HTU21D;8365;51.030;4.696;2023-08-12T13:47:04;27.59;65.81
16505;HTU21D;8365;51.030;4.696;2023-08-12T13:49:34;28.50;61.62
16505;HTU21D;8365;51.030;4.696;2023-08-12T13:52:05;29.48;58.38
16505;HTU21D;8365;51.030;4.696;2023-08-12T13:54:35;30.31;57.10
16505;HTU21D;8365;51.030;4.696;2023-08-12T13:57:06;30.08;54.83
16505;HTU21D;8365;51.030;4.696;2023-08-12T13:59:36;29.92;55.59
16505;HTU21D;8365;51.030;4.696;2023-08-12T14:02:07;30.10;54.97
16505;HTU21D;8365;51.030;4.696;2023-08-12T14:04:38;30.46;53.68
16505;HTU21D;8365;51.030;4.696;2023-08-12T14:07:08;30.52;54.13
16505;HTU21D;8365;51.030;4.696;2023-08-12T14:09:39;30.06;56.55
16505;HTU21D;8365;51.030;4.696;2023-08-12T14:12:09;29.23;56.26
16505;HTU21D;8365;51.030;4.696;2023-08-12T14:14:40;29.60;57.97
16505;HTU21D;8365;51.030;4.696;2023-08-12T14:17:10;29.77;56.14
16505;HTU21D;8365;51.030;4.696;2023-08-12T14:19:46;29.08;56.17
16505;HTU21D;8365;51.030;4.696;2023-08-12T14:22:17;28.91;58.30
16505;HTU21D;8365;51.030;4.696;2023-08-12T14:24:48;27.96;59.78
16505;HTU21D;8365;51.030;4.696;2023-08-12T14:27:18;27.51;61.76
16505;HTU21D;8365;51.030;4.696;2023-08-12T14:29:49;26.96;65.43
16505;HTU21D;8365;51.030;4.696;2023-08-12T14:32:19;28.25;61.27
16505;HTU21D;8365;51.030;4.696;2023-08-12T14:34:50;29.36;59.85
16505;HTU21D;8365;51.030;4.696;2023-08-12T14:37:20;30.08;58.11
16505;HTU21D;8365;51.030;4.696;2023-08-12T14:39:51;29.81;57.40
16505;HTU21D;8365;51.030;4.696;2023-08-12T14:42:21;29.52;58.32
16505;HTU21D;8365;51.030;4.696;2023-08-12T14:44:52;29.95;58.02
16505;HTU21D;8365;51.030;4.696;2023-08-12T14:47:22;29.61;58.28
16505;HTU21D;8365;51.030;4.696;2023-08-12T14:49:53;29.14;60.33
16505;HTU21D;8365;51.030;4.696;2023-08-12T14:52:25;28.32;61.63
16505;HTU21D;8365;51.030;4.696;2023-08-12T14:54:56;27.75;63.42
16505;HTU21D;8365;51.030;4.696;2023-08-12T14:57:28;28.57;62.24
16505;HTU21D;8365;51.030;4.696;2023-08-12T14:59:59;29.58;60.28
16505;HTU21D;8365;51.030;4.696;2023-08-12T15:02:29;29.64;58.59
16505;HTU21D;8365;51.030;4.696;2023-08-12T15:05:02;29.18;58.78
16505;HTU21D;8365;51.030;4.696;2023-08-12T15:07:33;29.96;59.26
16505;HTU21D;8365;51.030;4.696;2023-08-12T15:10:04;29.54;57.19
16505;HTU21D;8365;51.030;4.696;2023-08-12T15:12:37;30.03;54.94
16505;HTU21D;8365;51.030;4.696;2023-08-12T15:15:08;30.03;56.02
16505;HTU21D;8365;51.030;4.696;2023-08-12T15:17:38;29.28;55.68
16505;HTU21D;8365;51.030;4.696;2023-08-12T15:20:09;29.59;54.39
16505;HTU21D;8365;51.030;4.696;2023-08-12T15:22:43;29.65;54.62
16505;HTU21D;8365;51.030;4.696;2023-08-12T15:25:13;29.63;54.64
16505;HTU21D;8365;51.030;4.696;2023-08-12T15:27:46;28.92;55.47
16505;HTU21D;8365;51.030;4.696;2023-08-12T15:30:17;29.74;54.04
16505;HTU21D;8365;51.030;4.696;2023-08-12T15:32:47;28.76;56.42
16505;HTU21D;8365;51.030;4.696;2023-08-12T15:35:18;29.74;53.88
16505;HTU21D;8365;51.030;4.696;2023-08-12T15:37:50;30.06;53.56
16505;HTU21D;8365;51.030;4.696;2023-08-12T15:40:21;30.33;53.75
16505;HTU21D;8365;51.030;4.696;2023-08-12T15:42:51;30.13;53.53
16505;HTU21D;8365;51.030;4.696;2023-08-12T15:45:22;30.13;51.96
16505;HTU21D;8365;51.030;4.696;2023-08-12T15:47:52;30.31;51.78
16505;HTU21D;8365;51.030;4.696;2023-08-12T15:50:24;29.86;53.17
16505;HTU21D;8365;51.030;4.696;2023-08-12T15:52:54;30.03;54.78
16505;HTU21D;8365;51.030;4.696;2023-08-12T15:55:25;31.09;51.76
16505;HTU21D;8365;51.030;4.696;2023-08-12T15:57:55;30.60;52.07
16505;HTU21D;8365;51.030;4.696;2023-08-12T16:00:26;30.57;52.01